createdAt,value
2023-01-08T00:01:15.728Z,7.60
2023-01-08T00:03:42.932Z,7.60
2023-01-08T00:06:13.519Z,7.70
2023-01-08T00:08:40.619Z,7.70
2023-01-08T00:11:07.958Z,7.80
2023-01-08T00:13:35.225Z,7.80
2023-01-08T00:16:16.989Z,7.80
2023-01-08T00:18:45.606Z,7.90
2023-01-08T00:21:13.191Z,7.90
2023-01-08T00:23:40.615Z,8.00
2023-01-08T00:26:09.764Z,8.00
2023-01-08T00:28:45.386Z,8.00
2023-01-08T00:31:15.756Z,8.10
2023-01-08T00:33:42.970Z,8.10
2023-01-08T00:36:18.362Z,8.00
2023-01-08T00:38:46.858Z,8.00
2023-01-08T00:41:15.715Z,8.10
2023-01-08T00:43:42.782Z,8.00
2023-01-08T00:46:10.161Z,8.00
2023-01-08T00:48:39.008Z,8.00
2023-01-08T00:51:07.636Z,8.00
2023-01-08T00:53:35.537Z,8.00
2023-01-08T00:56:08.316Z,8.00
2023-01-08T00:58:36.947Z,8.00
2023-01-08T01:01:16.645Z,7.90
2023-01-08T01:03:49.880Z,7.90
2023-01-08T01:06:17.153Z,7.90
2023-01-08T01:08:44.746Z,7.90
2023-01-08T01:11:21.715Z,7.90
2023-01-08T01:13:50.290Z,7.90
2023-01-08T01:18:53.669Z,7.90
2023-01-08T01:21:27.023Z,7.90
2023-01-08T01:23:56.456Z,7.90
2023-01-08T01:26:24.568Z,7.90
2023-01-08T01:29:11.689Z,7.90
2023-01-08T01:31:41.161Z,7.90
2023-01-08T01:34:16.785Z,7.90
2023-01-08T01:39:20.208Z,7.90
2023-01-08T01:41:48.113Z,7.80
2023-01-08T01:44:38.850Z,7.80
2023-01-08T01:47:29.101Z,7.80
2023-01-08T01:50:22.009Z,7.80
2023-01-08T01:53:02.799Z,7.80
2023-01-08T01:55:35.900Z,7.80
2023-01-08T01:58:23.735Z,7.80
2023-01-08T02:00:58.222Z,7.80
2023-01-08T02:03:31.209Z,7.80
2023-01-08T02:06:08.183Z,7.90
2023-01-08T02:09:21.803Z,7.80
2023-01-08T02:12:18.362Z,7.90
2023-01-08T02:15:26.290Z,8.00
2023-01-08T02:18:17.417Z,8.00
2023-01-08T02:20:56.425Z,7.90
2023-01-08T02:23:51.504Z,8.00
2023-01-08T02:26:26.810Z,8.00
2023-01-08T02:29:11.008Z,8.00
2023-01-08T02:31:41.437Z,8.00
2023-01-08T02:34:11.009Z,7.90
2023-01-08T09:06:18.975Z,7.30
2023-01-08T09:08:47.689Z,7.20
2023-01-08T09:16:37.231Z,7.40
2023-01-08T09:19:07.478Z,7.30
2023-01-08T09:32:22.618Z,7.20
2023-01-08T09:34:53.487Z,7.30
2023-01-08T09:37:20.524Z,7.30
2023-01-08T09:39:51.310Z,7.30
2023-01-08T09:44:59.320Z,7.10
2023-01-08T09:47:31.468Z,7.10
2023-01-08T09:50:05.088Z,7.10
2023-01-08T09:52:32.676Z,7.10
2023-01-08T09:55:01.324Z,7.10
2023-01-08T09:57:29.562Z,7.10
2023-01-08T09:59:56.892Z,7.10
2023-01-08T10:02:26.533Z,7.20
2023-01-08T10:04:59.250Z,7.20
2023-01-08T10:07:28.549Z,7.20
2023-01-08T10:09:56.263Z,7.10
2023-01-08T10:12:29.119Z,7.20
2023-01-08T10:15:00.149Z,7.20
2023-01-08T10:22:44.804Z,7.20
2023-01-08T10:25:14.929Z,7.40
2023-01-08T10:27:59.093Z,7.40
2023-01-08T10:30:31.825Z,7.40
2023-01-08T10:33:05.288Z,7.40
2023-01-08T10:35:35.833Z,7.40
2023-01-08T10:38:03.012Z,7.40
2023-01-08T10:40:45.851Z,7.40
2023-01-08T10:43:21.226Z,7.50
2023-01-08T10:46:03.222Z,7.60
2023-01-08T10:48:39.267Z,7.60
2023-01-08T10:51:14.793Z,7.60
2023-01-08T10:53:41.854Z,7.70
2023-01-08T10:56:18.748Z,7.70
2023-01-08T10:58:45.674Z,7.70
2023-01-08T11:01:33.141Z,7.70
2023-01-08T11:04:02.556Z,7.70
2023-01-08T11:06:33.376Z,7.70
2023-01-08T11:09:04.777Z,7.70
2023-01-08T11:11:38.452Z,7.70
2023-01-08T11:14:22.864Z,7.80
2023-01-08T11:16:50.516Z,7.90
2023-01-08T11:19:25.648Z,7.90
2023-01-08T11:22:01.160Z,8.00
2023-01-08T11:24:38.526Z,8.00
2023-01-08T11:27:05.378Z,8.00
2023-01-08T11:29:38.912Z,8.00
2023-01-08T11:32:15.901Z,8.00
2023-01-08T11:34:55.350Z,8.10
2023-01-08T11:37:33.621Z,8.10
2023-01-08T11:40:00.541Z,8.20
2023-01-08T11:42:33.889Z,8.10
2023-01-08T11:45:25.573Z,8.10
2023-01-08T11:48:23.654Z,8.20
2023-01-08T11:50:56.204Z,8.10
2023-01-08T11:53:57.304Z,8.20
2023-01-08T11:56:33.170Z,8.20
2023-01-08T11:59:17.718Z,8.10
2023-01-08T12:01:53.329Z,8.10
2023-01-08T12:04:32.131Z,8.10
2023-01-08T12:07:07.769Z,8.10
2023-01-08T12:09:46.297Z,8.10
2023-01-08T12:12:41.061Z,8.10
2023-01-08T12:15:26.500Z,8.00
2023-01-08T12:18:05.395Z,8.00
2023-01-08T12:21:11.362Z,8.00
2023-01-08T12:24:00.178Z,8.00
2023-01-08T12:26:46.579Z,7.90
2023-01-08T12:29:32.036Z,7.80
2023-01-08T12:32:38.409Z,7.70
2023-01-08T12:35:26.261Z,7.60
2023-01-08T12:37:55.555Z,7.60
2023-01-08T12:40:35.513Z,7.60
2023-01-08T12:43:11.674Z,7.60
2023-01-08T12:45:43.895Z,7.70
2023-01-08T12:48:24.533Z,7.80
2023-01-08T12:51:06.220Z,7.80
2023-01-08T12:54:04.734Z,7.80
2023-01-08T12:56:43.584Z,7.80
2023-01-08T12:59:22.243Z,7.80
2023-01-08T13:02:07.856Z,7.50
2023-01-08T13:04:42.488Z,7.30
2023-01-08T13:07:32.521Z,7.10
2023-01-08T13:10:09.238Z,6.90
2023-01-08T13:12:39.483Z,6.80
2023-01-08T13:15:08.576Z,6.70
2023-01-08T13:17:37.603Z,6.60
2023-01-08T13:20:07.313Z,6.60
2023-01-08T13:22:37.445Z,6.50
2023-01-08T13:25:17.138Z,6.50
2023-01-08T13:27:45.622Z,6.40
2023-01-08T13:30:34.421Z,6.40
2023-01-08T13:33:02.202Z,6.40
2023-01-08T13:35:31.640Z,6.40
2023-01-08T13:38:10.674Z,6.40
2023-01-08T13:40:49.766Z,6.40
2023-01-08T13:43:35.978Z,6.40
2023-01-08T13:46:02.856Z,6.40
2023-01-08T13:49:15.980Z,6.40
2023-01-08T13:51:47.500Z,6.40
2023-01-08T13:54:17.333Z,6.40
2023-01-08T13:56:53.875Z,6.40
2023-01-08T13:59:29.852Z,6.40
2023-01-08T14:01:57.837Z,6.40
2023-01-08T14:04:25.619Z,6.30
2023-01-08T14:06:52.655Z,6.40
2023-01-08T14:09:25.285Z,6.40
2023-01-08T14:11:58.359Z,6.40
2023-01-08T14:14:25.251Z,6.40
2023-01-08T14:16:53.724Z,6.50
2023-01-08T14:19:23.914Z,6.40
2023-01-08T14:22:01.633Z,6.40
2023-01-08T14:24:28.699Z,6.40
2023-01-08T14:27:00.122Z,6.40
2023-01-08T14:29:34.678Z,6.50
2023-01-08T14:32:01.865Z,6.40
2023-01-08T14:34:31.640Z,6.40
2023-01-08T14:36:58.788Z,6.40
2023-01-08T14:39:31.907Z,6.40
2023-01-08T14:42:24.387Z,6.40
2023-01-08T14:45:20.364Z,6.40
2023-01-08T14:47:50.832Z,6.30
2023-01-08T14:50:29.860Z,6.30
2023-01-08T14:53:23.393Z,6.30
2023-01-08T14:55:53.662Z,6.30
2023-01-08T14:58:35.968Z,6.40
2023-01-08T15:01:15.108Z,6.40
2023-01-08T15:03:44.717Z,6.40
2023-01-08T15:06:12.184Z,6.50
2023-01-08T15:08:41.537Z,6.50
2023-01-08T15:11:26.462Z,6.60
2023-01-08T15:13:54.929Z,6.60
2023-01-08T15:16:28.450Z,6.60
2023-01-08T15:19:17.713Z,6.60
2023-01-08T15:21:52.728Z,6.60
2023-01-08T15:24:27.587Z,6.50
2023-01-08T15:26:55.482Z,6.50
2023-01-08T15:29:49.309Z,6.40
2023-01-08T15:32:16.155Z,6.40
2023-01-08T15:34:44.321Z,6.50
2023-01-08T15:37:12.465Z,6.40
2023-01-08T15:39:39.385Z,6.40
2023-01-08T15:42:48.645Z,6.40
2023-01-08T15:45:21.526Z,6.30
2023-01-08T15:47:48.601Z,6.40
2023-01-08T15:50:15.773Z,6.30
2023-01-08T15:52:43.711Z,6.30
2023-01-08T15:55:22.725Z,6.30
2023-01-08T15:57:50.308Z,6.20
2023-01-08T16:00:19.797Z,6.20
2023-01-08T16:02:53.961Z,6.10
2023-01-08T16:05:22.865Z,6.10
2023-01-08T16:07:49.931Z,6.00
2023-01-08T16:10:17.742Z,6.10
2023-01-08T16:12:44.937Z,6.20
2023-01-08T16:15:14.176Z,6.20
2023-01-08T16:17:41.911Z,6.30
2023-01-08T16:20:10.289Z,6.30
2023-01-08T16:22:37.489Z,6.30
2023-01-08T16:25:05.045Z,6.30
2023-01-08T16:27:32.898Z,6.30
2023-01-08T16:30:00.285Z,6.30
2023-01-08T16:32:27.233Z,6.20
2023-01-08T16:34:55.132Z,6.30
2023-01-08T16:37:22.928Z,6.30
2023-01-08T16:39:50.017Z,6.30
2023-01-08T16:42:16.940Z,6.30
2023-01-08T16:44:43.825Z,6.20
2023-01-08T16:47:10.853Z,6.20
2023-01-08T16:49:37.776Z,6.20
2023-01-08T16:52:04.894Z,6.30
2023-01-08T16:54:33.132Z,6.30
2023-01-08T16:57:00.039Z,6.30
2023-01-08T16:59:27.303Z,6.30
2023-01-08T17:01:54.900Z,6.20
2023-01-08T17:04:21.977Z,6.10
2023-01-08T17:06:49.042Z,6.10
2023-01-08T17:09:16.200Z,6.00
2023-01-08T17:11:43.570Z,6.00
2023-01-08T17:14:10.654Z,6.10
2023-01-08T17:16:37.597Z,6.20
2023-01-08T17:19:04.967Z,6.20
2023-01-08T17:21:33.693Z,6.20
2023-01-08T17:24:00.673Z,6.10
2023-01-08T17:26:27.868Z,6.20
2023-01-08T17:28:55.242Z,6.20
2023-01-08T17:31:22.497Z,6.10
2023-01-08T17:33:50.634Z,6.10
2023-01-08T17:36:29.957Z,6.10
2023-01-08T17:38:56.808Z,6.10
2023-01-08T17:41:42.744Z,6.00
2023-01-08T17:44:12.370Z,6.00
2023-01-08T17:46:45.440Z,6.00
2023-01-08T17:49:14.681Z,6.00
2023-01-08T17:51:42.837Z,6.00
2023-01-08T17:54:15.650Z,6.00
2023-01-08T17:56:43.235Z,5.90
2023-01-08T17:59:17.610Z,5.90
2023-01-08T18:01:45.537Z,5.90
2023-01-08T18:04:13.495Z,5.90
2023-01-08T18:06:40.814Z,5.80
2023-01-08T18:09:09.672Z,5.80
2023-01-08T18:11:36.557Z,5.80
2023-01-08T18:14:03.899Z,5.80
2023-01-08T18:16:32.575Z,5.80
2023-01-08T18:19:00.379Z,5.70
2023-01-08T18:21:28.618Z,5.60
2023-01-08T18:23:55.613Z,5.60
2023-01-08T18:26:23.236Z,5.50
2023-01-08T18:28:52.067Z,5.50
2023-01-08T18:31:19.444Z,5.40
2023-01-08T18:33:48.890Z,5.40
2023-01-08T18:36:15.811Z,5.40
2023-01-08T18:38:44.444Z,5.30
2023-01-08T18:41:33.708Z,5.30
2023-01-08T18:44:01.084Z,5.30
2023-01-08T18:46:28.309Z,5.30
2023-01-08T18:48:55.499Z,5.20
2023-01-08T18:51:23.339Z,5.20
2023-01-08T18:53:50.378Z,5.10
2023-01-08T18:56:27.896Z,5.00
2023-01-08T18:58:55.341Z,5.00
2023-01-08T19:01:23.006Z,5.00
2023-01-08T19:03:50.012Z,5.00
2023-01-08T19:06:17.688Z,5.00
2023-01-08T19:08:45.678Z,5.00
2023-01-08T19:11:13.240Z,4.90
2023-01-08T19:13:40.685Z,4.90
2023-01-08T19:16:10.085Z,4.80
2023-01-08T19:18:38.104Z,4.70
2023-01-08T19:21:09.464Z,4.70
2023-01-08T19:23:36.362Z,4.60
2023-01-08T19:26:07.826Z,4.60
2023-01-08T19:28:34.967Z,4.50
2023-01-08T19:31:03.017Z,4.50
2023-01-08T19:33:30.001Z,4.40
2023-01-08T19:36:02.500Z,4.30
2023-01-08T19:38:29.388Z,4.20
2023-01-08T19:41:00.393Z,4.20
2023-01-08T19:43:42.939Z,4.10
2023-01-08T19:46:15.618Z,4.00
2023-01-08T19:48:44.030Z,4.10
2023-01-08T19:51:12.614Z,4.10
2023-01-08T19:53:40.105Z,4.10
2023-01-08T19:56:09.691Z,4.30
2023-01-08T19:58:36.738Z,4.40
2023-01-08T20:01:29.807Z,4.40
2023-01-08T20:03:57.033Z,4.50
2023-01-08T20:06:26.246Z,4.50
2023-01-08T20:08:58.445Z,4.60
2023-01-08T20:11:26.498Z,4.60
2023-01-08T20:13:55.546Z,4.60
2023-01-08T20:16:24.313Z,4.70
2023-01-08T20:18:51.241Z,4.70
2023-01-08T20:21:23.111Z,4.70
2023-01-08T20:24:04.169Z,4.70
2023-01-08T20:26:32.086Z,4.70
2023-01-08T20:28:59.392Z,4.70
2023-01-08T20:31:29.709Z,4.60
2023-01-08T20:33:58.240Z,4.60
2023-01-08T20:36:27.879Z,4.50
2023-01-08T20:38:57.507Z,4.50
2023-01-08T20:41:26.465Z,4.60
2023-01-08T20:43:56.247Z,4.60
2023-01-08T20:46:28.219Z,4.60
2023-01-08T20:48:56.793Z,4.50
2023-01-08T20:51:23.658Z,4.50
2023-01-08T20:53:50.693Z,4.40
2023-01-08T20:56:18.681Z,4.40
2023-01-08T20:58:46.759Z,4.40
2023-01-08T21:01:19.848Z,4.40
2023-01-08T21:03:48.676Z,4.40
2023-01-08T21:06:20.932Z,4.40
2023-01-08T21:08:49.826Z,4.40
2023-01-08T21:11:17.693Z,4.40
2023-01-08T21:13:45.141Z,4.50
2023-01-08T21:16:15.628Z,4.40
2023-01-08T21:18:49.203Z,4.40
2023-01-08T21:21:20.969Z,4.40
2023-01-08T21:23:48.373Z,4.50
2023-01-08T21:26:16.577Z,4.60
2023-01-08T21:28:44.270Z,4.60
2023-01-08T21:31:18.117Z,4.60
2023-01-08T21:33:48.471Z,4.60
2023-01-08T21:36:18.515Z,4.60
2023-01-08T21:38:45.699Z,4.60
2023-01-08T21:41:36.040Z,4.70
2023-01-08T21:44:23.953Z,4.70
2023-01-08T21:46:51.194Z,4.70
2023-01-08T21:49:18.137Z,4.60
2023-01-08T21:52:03.743Z,4.60
2023-01-08T21:54:30.620Z,4.60
2023-01-08T21:56:57.531Z,4.70
2023-01-08T21:59:24.450Z,4.70
2023-01-08T22:01:51.477Z,4.70
2023-01-08T22:04:18.589Z,4.70
2023-01-08T22:06:45.496Z,4.70
2023-01-08T22:09:12.376Z,4.70
2023-01-08T22:11:39.293Z,4.70
2023-01-08T22:14:06.187Z,4.70
2023-01-08T22:16:33.181Z,4.80
2023-01-08T22:19:00.215Z,4.70
2023-01-08T22:21:27.148Z,4.70
2023-01-08T22:23:56.230Z,4.80
2023-01-08T22:26:24.064Z,4.80
2023-01-08T22:28:51.145Z,4.70
2023-01-08T22:31:18.136Z,4.70
2023-01-08T22:33:45.112Z,4.70
2023-01-08T22:36:14.195Z,4.70
2023-01-08T22:38:41.373Z,4.70
2023-01-08T22:41:26.398Z,4.60
2023-01-08T22:43:57.146Z,4.50
2023-01-08T22:46:25.507Z,4.40
2023-01-08T22:48:52.641Z,4.50
2023-01-08T22:51:25.243Z,4.50
2023-01-08T22:53:55.329Z,4.50
2023-01-08T22:56:22.481Z,4.50
2023-01-08T22:58:49.400Z,4.50
2023-01-08T23:01:25.243Z,4.60
2023-01-08T23:03:54.132Z,4.60
2023-01-08T23:06:22.508Z,4.60
2023-01-08T23:08:49.825Z,4.70
2023-01-08T23:11:19.661Z,4.70
2023-01-08T23:13:46.950Z,4.80
2023-01-08T23:16:15.861Z,4.80
2023-01-08T23:18:43.048Z,4.80
2023-01-08T23:21:15.856Z,4.80
2023-01-08T23:23:43.858Z,4.80
2023-01-08T23:26:18.581Z,4.80
2023-01-08T23:28:47.057Z,4.80
2023-01-08T23:31:18.371Z,4.80
2023-01-08T23:33:45.452Z,4.80
2023-01-08T23:36:18.255Z,4.80
2023-01-08T23:38:46.275Z,4.90
2023-01-08T23:41:13.541Z,4.80
2023-01-08T23:43:41.133Z,4.90
2023-01-08T23:46:08.306Z,4.90
2023-01-08T23:48:35.446Z,4.80
2023-01-08T23:51:02.458Z,4.80
2023-01-08T23:53:29.554Z,4.80
2023-01-08T23:55:56.791Z,4.80
2023-01-08T23:58:24.206Z,4.80
